sensor_id;sensor_type;location;lat;lon;timestamp;temperature;humidity
20650;DHT22;10484;48.736;9.332;2024-01-15T00:01:29;-1.50;1.00
20650;DHT22;10484;48.736;9.332;2024-01-15T00:03:54;-1.50;1.00
20650;DHT22;10484;48.736;9.332;2024-01-15T00:06:20;-1.50;1.00
20650;DHT22;10484;48.736;9.332;2024-01-15T00:08:46;-1.50;1.00
20650;DHT22;10484;48.736;9.332;2024-01-15T00:11:12;-1.50;1.00
20650;DHT22;10484;48.736;9.332;2024-01-15T00:13:37;-1.50;1.00
20650;DHT22;10484;48.736;9.332;2024-01-15T00:16:04;-1.50;1.00
20650;DHT22;10484;48.736;9.332;2024-01-15T00:18:30;-1.50;1.00
20650;DHT22;10484;48.736;9.332;2024-01-15T00:20:55;-1.50;1.00
20650;DHT22;10484;48.736;9.332;2024-01-15T00:23:22;-1.50;1.00
20650;DHT22;10484;48.736;9.332;2024-01-15T00:25:47;-1.40;1.00
20650;DHT22;10484;48.736;9.332;2024-01-15T00:28:13;-1.40;1.00
20650;DHT22;10484;48.736;9.332;2024-01-15T00:30:38;-1.40;1.00
20650;DHT22;10484;48.736;9.332;2024-01-15T00:33:04;-1.40;1.00
20650;DHT22;10484;48.736;9.332;2024-01-15T00:35:30;-1.40;1.00
20650;DHT22;10484;48.736;9.332;2024-01-15T00:37:56;-1.40;1.00
20650;DHT22;10484;48.736;9.332;2024-01-15T00:40:21;-1.40;1.00
20650;DHT22;10484;48.736;9.332;2024-01-15T00:42:47;-1.40;1.00
20650;DHT22;10484;48.736;9.332;2024-01-15T00:45:12;-1.50;1.00
20650;DHT22;10484;48.736;9.332;2024-01-15T00:47:38;-1.40;1.00
20650;DHT22;10484;48.736;9.332;2024-01-15T00:50:04;-1.40;1.00
20650;DHT22;10484;48.736;9.332;2024-01-15T00:52:30;-1.40;1.00
20650;DHT22;10484;48.736;9.332;2024-01-15T00:54:55;-1.50;1.00
20650;DHT22;10484;48.736;9.332;2024-01-15T00:57:21;-1.50;1.00
20650;DHT22;10484;48.736;9.332;2024-01-15T00:59:47;-1.50;1.00
20650;DHT22;10484;48.736;9.332;2024-01-15T01:02:13;-1.50;1.00
20650;DHT22;10484;48.736;9.332;2024-01-15T01:04:39;-1.50;1.00
20650;DHT22;10484;48.736;9.332;2024-01-15T01:07:05;-1.50;1.00
20650;DHT22;10484;48.736;9.332;2024-01-15T01:09:31;-1.60;1.00
20650;DHT22;10484;48.736;9.332;2024-01-15T01:11:56;-1.60;1.00
20650;DHT22;10484;48.736;9.332;2024-01-15T01:14:22;-1.60;1.00
20650;DHT22;10484;48.736;9.332;2024-01-15T01:16:48;-1.60;1.00
20650;DHT22;10484;48.736;9.332;2024-01-15T01:19:13;-1.60;1.00
20650;DHT22;10484;48.736;9.332;2024-01-15T01:21:39;-1.60;1.00
20650;DHT22;10484;48.736;9.332;2024-01-15T01:24:04;-1.70;1.00
20650;DHT22;10484;48.736;9.332;2024-01-15T01:26:31;-1.60;1.00
20650;DHT22;10484;48.736;9.332;2024-01-15T01:28:56;-1.70;1.00
20650;DHT22;10484;48.736;9.332;2024-01-15T01:31:23;-1.70;1.00
20650;DHT22;10484;48.736;9.332;2024-01-15T01:33:49;-1.70;1.00
20650;DHT22;10484;48.736;9.332;2024-01-15T01:36:14;-1.70;1.00
20650;DHT22;10484;48.736;9.332;2024-01-15T01:38:41;-1.70;1.00
20650;DHT22;10484;48.736;9.332;2024-01-15T01:41:07;-1.70;1.00
20650;DHT22;10484;48.736;9.332;2024-01-15T01:43:33;-1.70;1.00
20650;DHT22;10484;48.736;9.332;2024-01-15T01:46:00;-1.70;1.00
20650;DHT22;10484;48.736;9.332;2024-01-15T01:48:26;-1.70;1.00
20650;DHT22;10484;48.736;9.332;2024-01-15T01:50:54;-1.70;1.00
20650;DHT22;10484;48.736;9.332;2024-01-15T01:53:20;-1.70;1.00
20650;DHT22;10484;48.736;9.332;2024-01-15T01:55:47;-1.70;1.00
20650;DHT22;10484;48.736;9.332;2024-01-15T01:58:13;-1.70;1.00
20650;DHT22;10484;48.736;9.332;2024-01-15T02:00:39;-1.70;1.00
20650;DHT22;10484;48.736;9.332;2024-01-15T02:03:05;-1.70;1.00
20650;DHT22;10484;48.736;9.332;2024-01-15T02:05:32;-1.60;1.00
20650;DHT22;10484;48.736;9.332;2024-01-15T02:07:58;-1.60;1.00
20650;DHT22;10484;48.736;9.332;2024-01-15T02:10:23;-1.60;1.00
20650;DHT22;10484;48.736;9.332;2024-01-15T02:12:49;-1.60;1.00
20650;DHT22;10484;48.736;9.332;2024-01-15T02:15:15;-1.60;1.00
20650;DHT22;10484;48.736;9.332;2024-01-15T02:18:00;-1.60;1.00
20650;DHT22;10484;48.736;9.332;2024-01-15T02:20:26;-1.60;1.00
20650;DHT22;10484;48.736;9.332;2024-01-15T02:22:52;-1.60;1.00
20650;DHT22;10484;48.736;9.332;2024-01-15T02:25:18;-1.50;1.00
20650;DHT22;10484;48.736;9.332;2024-01-15T02:27:44;-1.50;1.00
20650;DHT22;10484;48.736;9.332;2024-01-15T02:30:11;-1.50;1.00
20650;DHT22;10484;48.736;9.332;2024-01-15T02:32:38;-1.50;1.00
20650;DHT22;10484;48.736;9.332;2024-01-15T02:35:04;-1.50;1.00
20650;DHT22;10484;48.736;9.332;2024-01-15T02:37:30;-1.50;1.00
20650;DHT22;10484;48.736;9.332;2024-01-15T02:39:55;-1.50;1.00
20650;DHT22;10484;48.736;9.332;2024-01-15T02:42:21;-1.50;1.00
20650;DHT22;10484;48.736;9.332;2024-01-15T02:44:46;-1.50;1.00
20650;DHT22;10484;48.736;9.332;2024-01-15T02:47:14;-1.50;1.00
20650;DHT22;10484;48.736;9.332;2024-01-15T02:49:40;-1.50;1.00
20650;DHT22;10484;48.736;9.332;2024-01-15T02:52:05;-1.50;1.00
20650;DHT22;10484;48.736;9.332;2024-01-15T02:54:31;-1.40;1.00
20650;DHT22;10484;48.736;9.332;2024-01-15T02:56:57;-1.50;1.00
20650;DHT22;10484;48.736;9.332;2024-01-15T02:59:22;-1.40;1.00
20650;DHT22;10484;48.736;9.332;2024-01-15T03:01:48;-1.40;1.00
20650;DHT22;10484;48.736;9.332;2024-01-15T03:04:13;-1.40;1.00
20650;DHT22;10484;48.736;9.332;2024-01-15T03:06:39;-1.40;1.00
20650;DHT22;10484;48.736;9.332;2024-01-15T03:09:04;-1.40;1.00
20650;DHT22;10484;48.736;9.332;2024-01-15T03:11:37;-1.40;1.00
20650;DHT22;10484;48.736;9.332;2024-01-15T03:14:02;-1.40;1.00
20650;DHT22;10484;48.736;9.332;2024-01-15T03:16:28;-1.40;1.00
20650;DHT22;10484;48.736;9.332;2024-01-15T03:18:53;-1.40;1.00
20650;DHT22;10484;48.736;9.332;2024-01-15T03:21:19;-1.40;1.00
20650;DHT22;10484;48.736;9.332;2024-01-15T03:23:44;-1.40;1.00
20650;DHT22;10484;48.736;9.332;2024-01-15T03:26:10;-1.40;1.00
20650;DHT22;10484;48.736;9.332;2024-01-15T03:28:36;-1.50;1.00
20650;DHT22;10484;48.736;9.332;2024-01-15T03:31:01;-1.50;1.00
20650;DHT22;10484;48.736;9.332;2024-01-15T03:33:27;-1.50;1.00
20650;DHT22;10484;48.736;9.332;2024-01-15T03:35:52;-1.50;1.00
20650;DHT22;10484;48.736;9.332;2024-01-15T03:38:18;-1.50;1.00
20650;DHT22;10484;48.736;9.332;2024-01-15T03:40:43;-1.50;1.00
20650;DHT22;10484;48.736;9.332;2024-01-15T03:43:09;-1.60;1.00
20650;DHT22;10484;48.736;9.332;2024-01-15T03:45:34;-1.50;1.00
20650;DHT22;10484;48.736;9.332;2024-01-15T03:48:00;-1.60;1.00
20650;DHT22;10484;48.736;9.332;2024-01-15T03:50:26;-1.60;1.20
20650;DHT22;10484;48.736;9.332;2024-01-15T03:52:51;-1.60;1.00
20650;DHT22;10484;48.736;9.332;2024-01-15T03:55:17;-1.60;1.00
20650;DHT22;10484;48.736;9.332;2024-01-15T03:57:42;-1.60;1.00
20650;DHT22;10484;48.736;9.332;2024-01-15T04:00:08;-1.70;1.00
20650;DHT22;10484;48.736;9.332;2024-01-15T04:02:34;-1.70;1.00
20650;DHT22;10484;48.736;9.332;2024-01-15T04:04:59;-1.70;1.00
20650;DHT22;10484;48.736;9.332;2024-01-15T04:07:25;-1.70;1.00
20650;DHT22;10484;48.736;9.332;2024-01-15T04:09:50;-1.70;1.00
20650;DHT22;10484;48.736;9.332;2024-01-15T04:12:16;-1.70;1.00
20650;DHT22;10484;48.736;9.332;2024-01-15T04:14:42;-1.70;1.00
20650;DHT22;10484;48.736;9.332;2024-01-15T04:17:07;-1.70;1.00
20650;DHT22;10484;48.736;9.332;2024-01-15T04:19:33;-1.70;1.00
20650;DHT22;10484;48.736;9.332;2024-01-15T04:21:58;-1.70;1.00
20650;DHT22;10484;48.736;9.332;2024-01-15T04:24:24;-1.70;1.00
20650;DHT22;10484;48.736;9.332;2024-01-15T04:26:49;-1.70;1.00
20650;DHT22;10484;48.736;9.332;2024-01-15T04:29:15;-1.80;1.00
20650;DHT22;10484;48.736;9.332;2024-01-15T04:31:41;-1.80;1.00
20650;DHT22;10484;48.736;9.332;2024-01-15T04:34:06;-1.80;1.00
20650;DHT22;10484;48.736;9.332;2024-01-15T04:36:33;-1.80;1.00
20650;DHT22;10484;48.736;9.332;2024-01-15T04:39:03;-1.70;1.30
20650;DHT22;10484;48.736;9.332;2024-01-15T04:41:30;-1.80;1.40
20650;DHT22;10484;48.736;9.332;2024-01-15T04:43:55;-1.80;2.00
20650;DHT22;10484;48.736;9.332;2024-01-15T04:46:21;-1.80;2.40
20650;DHT22;10484;48.736;9.332;2024-01-15T04:48:46;-1.80;2.30
20650;DHT22;10484;48.736;9.332;2024-01-15T04:51:12;-1.70;2.60
20650;DHT22;10484;48.736;9.332;2024-01-15T04:53:37;-1.70;2.80
20650;DHT22;10484;48.736;9.332;2024-01-15T04:56:03;-1.80;2.70
20650;DHT22;10484;48.736;9.332;2024-01-15T04:58:29;-1.70;3.00
20650;DHT22;10484;48.736;9.332;2024-01-15T05:00:55;-1.70;3.20
20650;DHT22;10484;48.736;9.332;2024-01-15T05:03:20;-1.70;3.50
20650;DHT22;10484;48.736;9.332;2024-01-15T05:05:46;-1.70;3.70
20650;DHT22;10484;48.736;9.332;2024-01-15T05:08:11;-1.70;3.90
20650;DHT22;10484;48.736;9.332;2024-01-15T05:10:37;-1.70;4.00
20650;DHT22;10484;48.736;9.332;2024-01-15T05:13:02;-1.70;4.10
20650;DHT22;10484;48.736;9.332;2024-01-15T05:15:28;-1.70;4.30
20650;DHT22;10484;48.736;9.332;2024-01-15T05:17:54;-1.60;4.40
20650;DHT22;10484;48.736;9.332;2024-01-15T05:20:19;-1.60;4.60
20650;DHT22;10484;48.736;9.332;2024-01-15T05:22:45;-1.60;5.90
20650;DHT22;10484;48.736;9.332;2024-01-15T05:25:10;-1.60;4.70
20650;DHT22;10484;48.736;9.332;2024-01-15T05:27:36;-1.60;4.80
20650;DHT22;10484;48.736;9.332;2024-01-15T05:30:02;-1.60;5.20
20650;DHT22;10484;48.736;9.332;2024-01-15T05:32:29;-1.60;5.20
20650;DHT22;10484;48.736;9.332;2024-01-15T05:34:54;-1.60;5.50
20650;DHT22;10484;48.736;9.332;2024-01-15T05:37:20;-1.50;5.80
20650;DHT22;10484;48.736;9.332;2024-01-15T05:39:45;-1.60;6.00
20650;DHT22;10484;48.736;9.332;2024-01-15T05:42:11;-1.50;6.10
20650;DHT22;10484;48.736;9.332;2024-01-15T05:44:37;-1.50;6.60
20650;DHT22;10484;48.736;9.332;2024-01-15T05:47:02;-1.50;6.80
20650;DHT22;10484;48.736;9.332;2024-01-15T05:49:29;-1.40;7.00
20650;DHT22;10484;48.736;9.332;2024-01-15T05:51:55;-1.40;7.20
20650;DHT22;10484;48.736;9.332;2024-01-15T05:54:21;-1.40;7.40
20650;DHT22;10484;48.736;9.332;2024-01-15T05:56:46;-1.30;7.40
20650;DHT22;10484;48.736;9.332;2024-01-15T05:59:12;-1.30;7.40
20650;DHT22;10484;48.736;9.332;2024-01-15T06:01:38;-1.20;7.50
20650;DHT22;10484;48.736;9.332;2024-01-15T06:04:03;-1.20;7.40
20650;DHT22;10484;48.736;9.332;2024-01-15T06:06:29;-1.20;7.30
20650;DHT22;10484;48.736;9.332;2024-01-15T06:08:54;-1.10;7.30
20650;DHT22;10484;48.736;9.332;2024-01-15T06:11:20;-1.10;7.20
20650;DHT22;10484;48.736;9.332;2024-01-15T06:13:45;-1.00;7.00
20650;DHT22;10484;48.736;9.332;2024-01-15T06:16:15;-1.00;7.00
20650;DHT22;10484;48.736;9.332;2024-01-15T06:18:42;-1.00;6.70
20650;DHT22;10484;48.736;9.332;2024-01-15T06:21:07;-1.00;6.60
20650;DHT22;10484;48.736;9.332;2024-01-15T06:23:36;-0.90;6.40
20650;DHT22;10484;48.736;9.332;2024-01-15T06:26:02;-0.90;6.30
20650;DHT22;10484;48.736;9.332;2024-01-15T06:28:29;-0.90;6.00
20650;DHT22;10484;48.736;9.332;2024-01-15T06:30:54;-0.90;6.20
20650;DHT22;10484;48.736;9.332;2024-01-15T06:33:20;-0.80;6.10
20650;DHT22;10484;48.736;9.332;2024-01-15T06:35:45;-0.80;6.10
20650;DHT22;10484;48.736;9.332;2024-01-15T06:38:11;-0.80;5.60
20650;DHT22;10484;48.736;9.332;2024-01-15T06:40:36;-0.80;5.30
20650;DHT22;10484;48.736;9.332;2024-01-15T06:43:02;-0.80;5.20
20650;DHT22;10484;48.736;9.332;2024-01-15T06:45:28;-0.80;4.90
20650;DHT22;10484;48.736;9.332;2024-01-15T06:47:53;-0.70;5.00
20650;DHT22;10484;48.736;9.332;2024-01-15T06:50:19;-0.70;5.00
20650;DHT22;10484;48.736;9.332;2024-01-15T06:52:44;-0.70;5.20
20650;DHT22;10484;48.736;9.332;2024-01-15T06:55:10;-0.60;5.10
20650;DHT22;10484;48.736;9.332;2024-01-15T06:57:35;-0.60;4.70
20650;DHT22;10484;48.736;9.332;2024-01-15T07:00:01;-0.60;4.40
20650;DHT22;10484;48.736;9.332;2024-01-15T07:02:28;-0.60;4.20
20650;DHT22;10484;48.736;9.332;2024-01-15T07:04:53;-0.60;4.20
20650;DHT22;10484;48.736;9.332;2024-01-15T07:07:19;-0.60;7.20
20650;DHT22;10484;48.736;9.332;2024-01-15T07:09:44;-0.60;3.90
20650;DHT22;10484;48.736;9.332;2024-01-15T07:12:10;-0.60;3.80
20650;DHT22;10484;48.736;9.332;2024-01-15T07:14:35;-0.60;3.70
20650;DHT22;10484;48.736;9.332;2024-01-15T07:17:01;-0.50;3.70
20650;DHT22;10484;48.736;9.332;2024-01-15T07:19:27;-0.50;3.60
20650;DHT22;10484;48.736;9.332;2024-01-15T07:21:53;-0.50;3.30
20650;DHT22;10484;48.736;9.332;2024-01-15T07:24:18;-0.50;3.30
20650;DHT22;10484;48.736;9.332;2024-01-15T07:26:44;-0.50;3.10
20650;DHT22;10484;48.736;9.332;2024-01-15T07:29:10;-0.50;3.00
20650;DHT22;10484;48.736;9.332;2024-01-15T07:31:35;-0.50;2.70
20650;DHT22;10484;48.736;9.332;2024-01-15T07:34:01;-0.50;2.50
20650;DHT22;10484;48.736;9.332;2024-01-15T07:36:26;-0.50;2.30
20650;DHT22;10484;48.736;9.332;2024-01-15T07:38:52;-0.50;1.70
20650;DHT22;10484;48.736;9.332;2024-01-15T07:41:17;-0.50;1.40
20650;DHT22;10484;48.736;9.332;2024-01-15T07:43:43;-0.50;1.20
20650;DHT22;10484;48.736;9.332;2024-01-15T07:46:09;-0.40;1.00
20650;DHT22;10484;48.736;9.332;2024-01-15T07:48:34;-0.40;1.00
20650;DHT22;10484;48.736;9.332;2024-01-15T07:51:00;-0.40;1.00
20650;DHT22;10484;48.736;9.332;2024-01-15T07:53:25;-0.40;1.00
20650;DHT22;10484;48.736;9.332;2024-01-15T07:55:51;-0.40;1.00
20650;DHT22;10484;48.736;9.332;2024-01-15T07:58:16;-0.40;1.00
20650;DHT22;10484;48.736;9.332;2024-01-15T08:00:42;-0.40;1.00
20650;DHT22;10484;48.736;9.332;2024-01-15T08:03:07;-0.30;1.00
20650;DHT22;10484;48.736;9.332;2024-01-15T08:05:33;-0.30;1.00
20650;DHT22;10484;48.736;9.332;2024-01-15T08:07:59;-0.30;1.00
20650;DHT22;10484;48.736;9.332;2024-01-15T08:10:24;-0.30;1.00
20650;DHT22;10484;48.736;9.332;2024-01-15T08:12:50;-0.30;1.00
20650;DHT22;10484;48.736;9.332;2024-01-15T08:15:15;-0.30;1.00
20650;DHT22;10484;48.736;9.332;2024-01-15T08:17:41;-0.20;1.00
20650;DHT22;10484;48.736;9.332;2024-01-15T08:20:07;-0.30;1.00
20650;DHT22;10484;48.736;9.332;2024-01-15T08:22:32;-0.20;1.00
20650;DHT22;10484;48.736;9.332;2024-01-15T08:24:58;-0.30;1.00
20650;DHT22;10484;48.736;9.332;2024-01-15T08:27:23;-0.20;1.00
20650;DHT22;10484;48.736;9.332;2024-01-15T08:29:49;-0.20;1.00
20650;DHT22;10484;48.736;9.332;2024-01-15T08:32:14;-0.20;1.00
20650;DHT22;10484;48.736;9.332;2024-01-15T08:34:41;-0.20;1.00
20650;DHT22;10484;48.736;9.332;2024-01-15T08:37:07;-0.10;1.00
20650;DHT22;10484;48.736;9.332;2024-01-15T08:39:33;-0.10;1.00
20650;DHT22;10484;48.736;9.332;2024-01-15T08:41:58;-0.20;1.00
20650;DHT22;10484;48.736;9.332;2024-01-15T08:44:24;-0.10;1.00
20650;DHT22;10484;48.736;9.332;2024-01-15T08:46:49;-0.10;1.00
20650;DHT22;10484;48.736;9.332;2024-01-15T08:49:15;-0.10;1.00
20650;DHT22;10484;48.736;9.332;2024-01-15T08:51:40;-0.10;1.00
20650;DHT22;10484;48.736;9.332;2024-01-15T08:54:06;-0.10;1.00
20650;DHT22;10484;48.736;9.332;2024-01-15T08:56:33;-0.10;1.00
20650;DHT22;10484;48.736;9.332;2024-01-15T08:58:59;0.00;1.00
20650;DHT22;10484;48.736;9.332;2024-01-15T09:01:25;0.00;1.00
20650;DHT22;10484;48.736;9.332;2024-01-15T09:03:51;0.00;1.00
20650;DHT22;10484;48.736;9.332;2024-01-15T09:06:16;0.00;1.00
20650;DHT22;10484;48.736;9.332;2024-01-15T09:08:42;0.00;1.00
20650;DHT22;10484;48.736;9.332;2024-01-15T09:11:07;0.10;1.00
20650;DHT22;10484;48.736;9.332;2024-01-15T09:13:33;0.10;1.00
20650;DHT22;10484;48.736;9.332;2024-01-15T09:15:58;0.10;1.00
20650;DHT22;10484;48.736;9.332;2024-01-15T09:18:25;0.10;1.00
20650;DHT22;10484;48.736;9.332;2024-01-15T09:20:50;0.10;1.00
20650;DHT22;10484;48.736;9.332;2024-01-15T09:23:16;0.20;1.00
20650;DHT22;10484;48.736;9.332;2024-01-15T09:25:41;0.20;1.00
20650;DHT22;10484;48.736;9.332;2024-01-15T09:28:07;0.20;1.00
20650;DHT22;10484;48.736;9.332;2024-01-15T09:30:33;0.30;1.00
20650;DHT22;10484;48.736;9.332;2024-01-15T09:32:59;0.30;1.00
20650;DHT22;10484;48.736;9.332;2024-01-15T09:35:24;0.30;1.00
20650;DHT22;10484;48.736;9.332;2024-01-15T09:37:50;0.30;1.00
20650;DHT22;10484;48.736;9.332;2024-01-15T09:40:16;0.30;1.00
20650;DHT22;10484;48.736;9.332;2024-01-15T09:42:42;0.30;1.00
20650;DHT22;10484;48.736;9.332;2024-01-15T09:45:08;0.40;1.00
20650;DHT22;10484;48.736;9.332;2024-01-15T09:47:36;0.40;1.00
20650;DHT22;10484;48.736;9.332;2024-01-15T09:50:02;0.40;1.00
20650;DHT22;10484;48.736;9.332;2024-01-15T09:52:30;0.40;1.00
20650;DHT22;10484;48.736;9.332;2024-01-15T09:54:57;0.50;1.00
20650;DHT22;10484;48.736;9.332;2024-01-15T09:57:24;0.50;1.00
20650;DHT22;10484;48.736;9.332;2024-01-15T09:59:52;0.50;1.00
20650;DHT22;10484;48.736;9.332;2024-01-15T10:02:19;0.60;1.00
20650;DHT22;10484;48.736;9.332;2024-01-15T10:04:45;0.50;1.00
20650;DHT22;10484;48.736;9.332;2024-01-15T10:07:16;0.60;1.00
20650;DHT22;10484;48.736;9.332;2024-01-15T10:09:46;0.60;1.00
20650;DHT22;10484;48.736;9.332;2024-01-15T10:12:12;0.70;1.00
20650;DHT22;10484;48.736;9.332;2024-01-15T10:14:37;0.70;1.00
20650;DHT22;10484;48.736;9.332;2024-01-15T10:17:15;0.70;1.00
20650;DHT22;10484;48.736;9.332;2024-01-15T10:19:40;0.70;1.00
20650;DHT22;10484;48.736;9.332;2024-01-15T10:22:08;0.70;1.00
20650;DHT22;10484;48.736;9.332;2024-01-15T10:24:40;0.80;1.00
20650;DHT22;10484;48.736;9.332;2024-01-15T10:27:10;0.80;1.00
20650;DHT22;10484;48.736;9.332;2024-01-15T10:29:36;0.80;1.00
20650;DHT22;10484;48.736;9.332;2024-01-15T10:32:05;0.80;1.00
20650;DHT22;10484;48.736;9.332;2024-01-15T10:34:31;0.80;1.00
20650;DHT22;10484;48.736;9.332;2024-01-15T10:36:56;0.90;1.00
20650;DHT22;10484;48.736;9.332;2024-01-15T10:39:23;0.90;1.00
20650;DHT22;10484;48.736;9.332;2024-01-15T10:41:49;0.90;1.00
20650;DHT22;10484;48.736;9.332;2024-01-15T10:44:15;0.90;1.00
20650;DHT22;10484;48.736;9.332;2024-01-15T10:46:40;0.90;1.00
20650;DHT22;10484;48.736;9.332;2024-01-15T10:49:07;0.90;1.00
20650;DHT22;10484;48.736;9.332;2024-01-15T10:51:33;1.00;1.00
20650;DHT22;10484;48.736;9.332;2024-01-15T10:54:01;1.00;1.00
20650;DHT22;10484;48.736;9.332;2024-01-15T10:56:28;1.00;1.00
20650;DHT22;10484;48.736;9.332;2024-01-15T10:58:56;1.00;1.00
20650;DHT22;10484;48.736;9.332;2024-01-15T11:01:22;1.00;1.00
20650;DHT22;10484;48.736;9.332;2024-01-15T11:03:48;1.00;1.00
20650;DHT22;10484;48.736;9.332;2024-01-15T11:06:18;1.00;1.00
20650;DHT22;10484;48.736;9.332;2024-01-15T11:08:48;1.10;1.00
20650;DHT22;10484;48.736;9.332;2024-01-15T11:11:18;1.10;1.00
20650;DHT22;10484;48.736;9.332;2024-01-15T11:13:49;1.10;1.00
20650;DHT22;10484;48.736;9.332;2024-01-15T11:16:17;1.10;1.00
20650;DHT22;10484;48.736;9.332;2024-01-15T11:21:24;1.10;1.00
20650;DHT22;10484;48.736;9.332;2024-01-15T11:24:01;1.20;1.00
20650;DHT22;10484;48.736;9.332;2024-01-15T11:28:57;1.20;1.00
20650;DHT22;10484;48.736;9.332;2024-01-15T11:34:09;1.30;1.00
20650;DHT22;10484;48.736;9.332;2024-01-15T11:42:00;1.30;1.00
20650;DHT22;10484;48.736;9.332;2024-01-15T11:44:27;1.30;1.00
20650;DHT22;10484;48.736;9.332;2024-01-15T11:47:02;1.30;1.00
20650;DHT22;10484;48.736;9.332;2024-01-15T11:52:05;1.30;1.00
20650;DHT22;10484;48.736;9.332;2024-01-15T11:54:33;1.40;1.00
20650;DHT22;10484;48.736;9.332;2024-01-15T11:57:04;1.40;1.00
20650;DHT22;10484;48.736;9.332;2024-01-15T11:59:33;1.40;1.00
20650;DHT22;10484;48.736;9.332;2024-01-15T12:01:59;1.40;1.00
20650;DHT22;10484;48.736;9.332;2024-01-15T12:04:25;1.40;1.00
20650;DHT22;10484;48.736;9.332;2024-01-15T12:06:52;1.40;1.00
20650;DHT22;10484;48.736;9.332;2024-01-15T12:09:19;1.40;1.00
20650;DHT22;10484;48.736;9.332;2024-01-15T12:11:51;1.40;1.00
20650;DHT22;10484;48.736;9.332;2024-01-15T12:14:21;1.40;1.00
20650;DHT22;10484;48.736;9.332;2024-01-15T12:16:47;1.40;1.00
20650;DHT22;10484;48.736;9.332;2024-01-15T12:19:14;1.50;1.00
20650;DHT22;10484;48.736;9.332;2024-01-15T12:21:39;1.40;1.00
20650;DHT22;10484;48.736;9.332;2024-01-15T12:24:07;1.50;1.00
20650;DHT22;10484;48.736;9.332;2024-01-15T12:26:33;1.50;1.00
20650;DHT22;10484;48.736;9.332;2024-01-15T12:29:01;1.50;1.00
20650;DHT22;10484;48.736;9.332;2024-01-15T12:31:27;1.50;1.00
20650;DHT22;10484;48.736;9.332;2024-01-15T12:33:56;1.50;1.00
20650;DHT22;10484;48.736;9.332;2024-01-15T12:36:21;1.50;1.00
20650;DHT22;10484;48.736;9.332;2024-01-15T12:38:47;1.50;1.00
20650;DHT22;10484;48.736;9.332;2024-01-15T12:41:12;1.40;1.00
20650;DHT22;10484;48.736;9.332;2024-01-15T12:43:38;1.50;1.00
20650;DHT22;10484;48.736;9.332;2024-01-15T12:46:04;1.40;1.00
20650;DHT22;10484;48.736;9.332;2024-01-15T12:48:29;1.40;1.00
20650;DHT22;10484;48.736;9.332;2024-01-15T12:50:55;1.40;1.00
20650;DHT22;10484;48.736;9.332;2024-01-15T12:53:21;1.40;1.00
20650;DHT22;10484;48.736;9.332;2024-01-15T12:55:47;1.40;1.00
20650;DHT22;10484;48.736;9.332;2024-01-15T12:58:12;1.40;1.00
20650;DHT22;10484;48.736;9.332;2024-01-15T13:00:39;1.30;1.00
20650;DHT22;10484;48.736;9.332;2024-01-15T13:03:05;1.30;1.00
20650;DHT22;10484;48.736;9.332;2024-01-15T13:05:32;1.30;1.00
20650;DHT22;10484;48.736;9.332;2024-01-15T13:07:58;1.30;1.00
20650;DHT22;10484;48.736;9.332;2024-01-15T13:10:25;1.30;1.20
20650;DHT22;10484;48.736;9.332;2024-01-15T13:12:51;1.30;2.80
20650;DHT22;10484;48.736;9.332;2024-01-15T13:15:17;1.30;3.70
20650;DHT22;10484;48.736;9.332;2024-01-15T13:17:42;1.30;4.10
20650;DHT22;10484;48.736;9.332;2024-01-15T13:20:08;1.30;5.00
20650;DHT22;10484;48.736;9.332;2024-01-15T13:22:34;1.30;5.80
20650;DHT22;10484;48.736;9.332;2024-01-15T13:25:00;1.30;6.60
20650;DHT22;10484;48.736;9.332;2024-01-15T13:27:26;1.30;7.30
20650;DHT22;10484;48.736;9.332;2024-01-15T13:29:51;1.30;9.60
20650;DHT22;10484;48.736;9.332;2024-01-15T13:32:25;1.30;10.00
20650;DHT22;10484;48.736;9.332;2024-01-15T13:34:51;1.30;10.80
20650;DHT22;10484;48.736;9.332;2024-01-15T13:37:17;1.30;11.00
20650;DHT22;10484;48.736;9.332;2024-01-15T13:39:42;1.30;11.50
20650;DHT22;10484;48.736;9.332;2024-01-15T13:42:09;1.30;12.00
20650;DHT22;10484;48.736;9.332;2024-01-15T13:44:37;1.30;13.00
20650;DHT22;10484;48.736;9.332;2024-01-15T13:47:03;1.30;14.20
20650;DHT22;10484;48.736;9.332;2024-01-15T13:49:28;1.30;15.30
20650;DHT22;10484;48.736;9.332;2024-01-15T13:51:54;1.30;16.10
20650;DHT22;10484;48.736;9.332;2024-01-15T13:54:20;1.30;16.40
20650;DHT22;10484;48.736;9.332;2024-01-15T13:56:46;1.30;17.00
20650;DHT22;10484;48.736;9.332;2024-01-15T13:59:12;1.30;17.40
20650;DHT22;10484;48.736;9.332;2024-01-15T14:01:38;1.30;18.20
20650;DHT22;10484;48.736;9.332;2024-01-15T14:04:04;1.30;19.00
20650;DHT22;10484;48.736;9.332;2024-01-15T14:06:29;1.30;19.80
20650;DHT22;10484;48.736;9.332;2024-01-15T14:08:55;1.30;20.20
20650;DHT22;10484;48.736;9.332;2024-01-15T14:11:20;1.30;21.20
20650;DHT22;10484;48.736;9.332;2024-01-15T14:13:46;1.30;21.40
20650;DHT22;10484;48.736;9.332;2024-01-15T14:16:13;1.30;21.50
20650;DHT22;10484;48.736;9.332;2024-01-15T14:18:38;1.30;21.40
20650;DHT22;10484;48.736;9.332;2024-01-15T14:21:04;1.30;21.10
20650;DHT22;10484;48.736;9.332;2024-01-15T14:23:29;1.30;20.50
20650;DHT22;10484;48.736;9.332;2024-01-15T14:25:56;1.40;20.10
20650;DHT22;10484;48.736;9.332;2024-01-15T14:28:22;1.40;20.00
20650;DHT22;10484;48.736;9.332;2024-01-15T14:30:48;1.40;20.00
20650;DHT22;10484;48.736;9.332;2024-01-15T14:33:14;1.40;20.30
20650;DHT22;10484;48.736;9.332;2024-01-15T14:35:40;1.40;20.40
20650;DHT22;10484;48.736;9.332;2024-01-15T14:38:05;1.30;20.50
20650;DHT22;10484;48.736;9.332;2024-01-15T14:40:33;1.30;20.80
20650;DHT22;10484;48.736;9.332;2024-01-15T14:42:59;1.30;22.10
20650;DHT22;10484;48.736;9.332;2024-01-15T14:45:24;1.30;22.80
20650;DHT22;10484;48.736;9.332;2024-01-15T14:47:52;1.40;23.50
20650;DHT22;10484;48.736;9.332;2024-01-15T14:50:18;1.30;25.70
20650;DHT22;10484;48.736;9.332;2024-01-15T14:52:44;1.30;27.30
20650;DHT22;10484;48.736;9.332;2024-01-15T14:55:11;1.30;28.80
20650;DHT22;10484;48.736;9.332;2024-01-15T14:57:37;1.30;29.10
20650;DHT22;10484;48.736;9.332;2024-01-15T15:00:04;1.30;28.60
20650;DHT22;10484;48.736;9.332;2024-01-15T15:02:32;1.20;28.00
20650;DHT22;10484;48.736;9.332;2024-01-15T15:05:00;1.20;27.60
20650;DHT22;10484;48.736;9.332;2024-01-15T15:07:26;1.20;27.30
20650;DHT22;10484;48.736;9.332;2024-01-15T15:09:51;1.20;27.30
20650;DHT22;10484;48.736;9.332;2024-01-15T15:12:17;1.20;28.20
20650;DHT22;10484;48.736;9.332;2024-01-15T15:14:43;1.20;28.90
20650;DHT22;10484;48.736;9.332;2024-01-15T15:17:09;1.10;29.30
20650;DHT22;10484;48.736;9.332;2024-01-15T15:19:35;1.10;29.60
20650;DHT22;10484;48.736;9.332;2024-01-15T15:22:01;1.10;29.80
20650;DHT22;10484;48.736;9.332;2024-01-15T15:24:27;1.10;30.00
20650;DHT22;10484;48.736;9.332;2024-01-15T15:26:52;1.10;30.20
20650;DHT22;10484;48.736;9.332;2024-01-15T15:29:18;1.20;30.10
20650;DHT22;10484;48.736;9.332;2024-01-15T15:31:44;1.20;30.00
20650;DHT22;10484;48.736;9.332;2024-01-15T15:34:09;1.10;29.80
20650;DHT22;10484;48.736;9.332;2024-01-15T15:36:35;1.10;29.70
20650;DHT22;10484;48.736;9.332;2024-01-15T15:39:01;1.10;29.60
20650;DHT22;10484;48.736;9.332;2024-01-15T15:41:27;1.10;29.20
20650;DHT22;10484;48.736;9.332;2024-01-15T15:43:53;1.10;28.80
20650;DHT22;10484;48.736;9.332;2024-01-15T15:46:19;1.10;27.70
20650;DHT22;10484;48.736;9.332;2024-01-15T15:48:45;1.10;26.20
20650;DHT22;10484;48.736;9.332;2024-01-15T15:51:10;1.20;25.20
20650;DHT22;10484;48.736;9.332;2024-01-15T15:53:36;1.10;24.50
20650;DHT22;10484;48.736;9.332;2024-01-15T15:56:02;1.20;23.30
20650;DHT22;10484;48.736;9.332;2024-01-15T15:58:28;1.20;22.20